Nelspruit, South Africa

9:10 PM SAST on July 24, 2014 (GMT +0200)
IMPUMALA11 Elev 2552 ft | 25.49 °S, 30.99 °E | Change Station

Current weather conditions updated 3 seconds ago

Clear
Clear
66.6 °F
Feels Like 66.6 °F
N
0.0
Wind Variable Wind from East
Gusts 0.0 mph

Tomorrow is forecast to be Warmer than today.

Today
High -- | Low -- °F
--% Chance of Precip.
Yesterday
High -- | Low -- °F
Precip. -- in
6:38 AM 5:27 PM
Waning Crescent, 4% visible
Pressure 30.12 in
Visibility -9999.0 miles
Clouds
Dew Point 38 °F
Humidity 35%
Rainfall 0.00 in
Snow Depth Not available.
UV Not available.
Pollen Not available.
Air Quality Not available.
Flu Activity Not available.
METAR FAKN 241900Z AUTO 07007KT //// // ////// 16/00 Q1020

More Conditions Fewer Conditions

Pressure 30.12 in
Visibility -9999.0 miles
Clouds
Dew Point 38 °F
Humidity 35%
Rainfall 0.00 in
Snow Depth Not available.
UV Not available.
Pollen Not available.
Air Quality Not available.
Flu Activity Not available.
METAR FAKN 241900Z AUTO 07007KT //// // ////// 16/00 Q1020

More Conditions Fewer Conditions

10-Day Weather Forecast

Almanac

Astronomy

Jul. 24, 2014 Rise Set
Actual Time 6:38 AM SAST 5:27 PM SAST
Civil Twilight 6:14 AM SAST 5:51 PM SAST
Nautical Twilight 5:46 AM SAST 6:19 PM SAST
Astronomical Twilight 5:18 AM SAST 6:47 PM SAST
Moon 4:26 AM SAST 3:32 PM SAST
Length of Visible Light 11h 37m
Length of Day
10h 48m
Tomorrow will be 0m 55s longer.
Waning Crescent, 4% of the Moon is Illuminated
Today
Waning Crescent
Jul 26
New
Aug 3
First Quarter
Aug 10
Full
Aug 17
Last Quarter

Today's Extremes

Country Highs Country Lows

Community

WunderPhotos

Upload Photos

1,737,094 photos uploaded!

Nearby

Snow Depth

Not available.

Earthquake Activity

City Distance Mag. Time & Date
No recent earthquake activity has been reported nearby.
Minimum magnitude displayed is 2.5.

Coastal Water Temperatures

Place Temperature
No Stations Reporting

Nearby Weather Stations

Station Location Temp. Dew Point Humidity Wind Precip. Elev Updated Type
Nelspruit 66.6 °F 38 °F 35% East  at  0.0 mph 0.00 in / hr 2552 ft 9:10 PM SAST Rapid Fire
Hilltop, Nelspruit 63.8 °F 40 °F 42% ENE  at  3.0 mph 0.00 in / hr 3805 ft 9:00 PM SAST Normal

Show More Stations Show Fewer Stations